sensor_id;sensor_type;location;lat;lon;timestamp;pressure;altitude;pressure_sealevel;temperature;humidity
70815;BME280;58428;49.478;10.986;2023-07-31T00:01:33;98388.97;;;16.66;100.00
70815;BME280;58428;49.478;10.986;2023-07-31T00:03:59;98384.69;;;16.65;100.00
70815;BME280;58428;49.478;10.986;2023-07-31T00:06:25;98385.81;;;16.64;100.00
70815;BME280;58428;49.478;10.986;2023-07-31T00:08:51;98380.34;;;16.64;100.00
70815;BME280;58428;49.478;10.986;2023-07-31T00:11:16;98367.03;;;16.59;100.00
70815;BME280;58428;49.478;10.986;2023-07-31T00:13:41;98371.75;;;16.62;100.00
70815;BME280;58428;49.478;10.986;2023-07-31T00:16:07;98361.22;;;16.64;100.00
70815;BME280;58428;49.478;10.986;2023-07-31T00:18:32;98360.44;;;16.64;100.00
70815;BME280;58428;49.478;10.986;2023-07-31T00:20:58;98360.88;;;16.66;100.00
70815;BME280;58428;49.478;10.986;2023-07-31T00:23:23;98366.75;;;16.68;100.00
70815;BME280;58428;49.478;10.986;2023-07-31T00:25:50;98358.56;;;16.68;100.00
70815;BME280;58428;49.478;10.986;2023-07-31T00:28:16;98368.00;;;16.70;100.00
70815;BME280;58428;49.478;10.986;2023-07-31T00:30:47;98362.88;;;16.69;100.00
70815;BME280;58428;49.478;10.986;2023-07-31T00:33:12;98357.78;;;16.67;100.00
70815;BME280;58428;49.478;10.986;2023-07-31T00:35:38;98356.25;;;16.70;100.00
70815;BME280;58428;49.478;10.986;2023-07-31T00:38:03;98362.53;;;16.70;100.00
70815;BME280;58428;49.478;10.986;2023-07-31T00:40:35;98362.09;;;16.68;100.00
70815;BME280;58428;49.478;10.986;2023-07-31T00:43:01;98359.72;;;16.67;100.00
70815;BME280;58428;49.478;10.986;2023-07-31T00:45:26;98359.03;;;16.73;100.00
70815;BME280;58428;49.478;10.986;2023-07-31T00:47:54;98355.59;;;16.76;100.00
70815;BME280;58428;49.478;10.986;2023-07-31T00:50:21;98352.88;;;16.76;100.00
70815;BME280;58428;49.478;10.986;2023-07-31T00:52:48;98355.63;;;16.80;100.00
70815;BME280;58428;49.478;10.986;2023-07-31T00:55:15;98356.44;;;16.80;100.00
70815;BME280;58428;49.478;10.986;2023-07-31T00:57:41;98356.03;;;16.78;100.00
70815;BME280;58428;49.478;10.986;2023-07-31T01:00:08;98361.50;;;16.82;100.00
70815;BME280;58428;49.478;10.986;2023-07-31T01:02:33;98367.41;;;16.84;100.00
70815;BME280;58428;49.478;10.986;2023-07-31T01:05:00;98363.53;;;16.85;100.00
70815;BME280;58428;49.478;10.986;2023-07-31T01:07:42;98362.78;;;16.88;100.00
70815;BME280;58428;49.478;10.986;2023-07-31T01:10:56;98352.25;;;16.90;100.00
70815;BME280;58428;49.478;10.986;2023-07-31T01:13:25;98342.22;;;16.97;100.00
70815;BME280;58428;49.478;10.986;2023-07-31T01:15:52;98343.88;;;17.01;100.00
70815;BME280;58428;49.478;10.986;2023-07-31T01:18:17;98351.31;;;17.04;100.00
70815;BME280;58428;49.478;10.986;2023-07-31T01:20:47;98344.31;;;17.07;100.00
70815;BME280;58428;49.478;10.986;2023-07-31T01:23:35;98336.53;;;17.09;100.00
70815;BME280;58428;49.478;10.986;2023-07-31T01:26:17;98337.78;;;17.11;100.00
70815;BME280;58428;49.478;10.986;2023-07-31T01:29:01;98340.44;;;17.08;100.00
70815;BME280;58428;49.478;10.986;2023-07-31T01:31:29;98337.34;;;17.09;100.00
70815;BME280;58428;49.478;10.986;2023-07-31T01:33:59;98341.28;;;17.12;100.00
70815;BME280;58428;49.478;10.986;2023-07-31T01:36:25;98338.13;;;17.10;100.00
70815;BME280;58428;49.478;10.986;2023-07-31T01:38:51;98335.03;;;17.11;100.00
70815;BME280;58428;49.478;10.986;2023-07-31T01:41:18;98334.19;;;17.07;100.00
70815;BME280;58428;49.478;10.986;2023-07-31T01:43:45;98334.63;;;17.09;100.00
70815;BME280;58428;49.478;10.986;2023-07-31T01:46:11;98333.50;;;17.14;100.00
70815;BME280;58428;49.478;10.986;2023-07-31T01:48:36;98321.41;;;17.15;100.00
70815;BME280;58428;49.478;10.986;2023-07-31T01:51:02;98324.63;;;17.20;100.00
70815;BME280;58428;49.478;10.986;2023-07-31T01:53:31;98320.34;;;17.19;100.00
70815;BME280;58428;49.478;10.986;2023-07-31T01:55:58;98316.44;;;17.20;100.00
70815;BME280;58428;49.478;10.986;2023-07-31T01:58:23;98318.38;;;17.20;100.00
70815;BME280;58428;49.478;10.986;2023-07-31T02:00:48;98310.19;;;17.20;100.00
70815;BME280;58428;49.478;10.986;2023-07-31T02:03:15;98313.75;;;17.24;100.00
70815;BME280;58428;49.478;10.986;2023-07-31T02:05:48;98305.59;;;17.27;100.00
70815;BME280;58428;49.478;10.986;2023-07-31T02:08:18;98290.03;;;17.31;100.00
70815;BME280;58428;49.478;10.986;2023-07-31T02:10:54;98297.09;;;17.35;100.00
70815;BME280;58428;49.478;10.986;2023-07-31T02:13:53;98288.94;;;17.39;100.00
70815;BME280;58428;49.478;10.986;2023-07-31T02:20:07;98279.53;;;17.36;100.00
70815;BME280;58428;49.478;10.986;2023-07-31T02:32:56;98279.91;;;17.35;100.00
70815;BME280;58428;49.478;10.986;2023-07-31T02:35:43;98284.19;;;17.36;100.00
70815;BME280;58428;49.478;10.986;2023-07-31T02:38:09;98274.38;;;17.32;100.00
70815;BME280;58428;49.478;10.986;2023-07-31T02:46:54;98288.00;;;17.28;100.00
70815;BME280;58428;49.478;10.986;2023-07-31T02:49:20;98287.22;;;17.28;100.00
70815;BME280;58428;49.478;10.986;2023-07-31T02:51:46;98285.63;;;17.23;100.00
70815;BME280;58428;49.478;10.986;2023-07-31T02:54:11;98284.03;;;17.22;100.00
70815;BME280;58428;49.478;10.986;2023-07-31T02:56:36;98283.66;;;17.24;100.00
70815;BME280;58428;49.478;10.986;2023-07-31T02:59:02;98272.69;;;17.20;100.00
70815;BME280;58428;49.478;10.986;2023-07-31T03:01:27;98280.53;;;17.22;100.00
70815;BME280;58428;49.478;10.986;2023-07-31T03:03:52;98277.38;;;17.20;100.00
70815;BME280;58428;49.478;10.986;2023-07-31T03:06:18;98281.66;;;17.17;100.00
70815;BME280;58428;49.478;10.986;2023-07-31T03:08:58;98279.69;;;17.18;100.00
70815;BME280;58428;49.478;10.986;2023-07-31T03:11:24;98272.63;;;17.17;100.00
70815;BME280;58428;49.478;10.986;2023-07-31T03:16:39;98283.97;;;17.15;100.00
70815;BME280;58428;49.478;10.986;2023-07-31T03:19:05;98268.75;;;17.18;100.00
70815;BME280;58428;49.478;10.986;2023-07-31T03:21:30;98271.84;;;17.16;100.00
70815;BME280;58428;49.478;10.986;2023-07-31T03:23:56;98270.63;;;17.14;100.00
70815;BME280;58428;49.478;10.986;2023-07-31T03:26:23;98276.94;;;17.18;100.00
70815;BME280;58428;49.478;10.986;2023-07-31T03:28:49;98282.69;;;17.13;100.00
70815;BME280;58428;49.478;10.986;2023-07-31T03:31:14;98272.56;;;17.13;100.00
70815;BME280;58428;49.478;10.986;2023-07-31T03:33:40;98276.09;;;17.14;100.00
70815;BME280;58428;49.478;10.986;2023-07-31T03:36:05;98272.09;;;17.08;100.00
70815;BME280;58428;49.478;10.986;2023-07-31T03:38:31;98275.13;;;16.99;100.00
70815;BME280;58428;49.478;10.986;2023-07-31T03:40:57;98268.41;;;16.94;100.00
70815;BME280;58428;49.478;10.986;2023-07-31T03:43:24;98269.13;;;16.91;100.00
70815;BME280;58428;49.478;10.986;2023-07-31T03:45:50;98274.06;;;16.82;100.00
70815;BME280;58428;49.478;10.986;2023-07-31T03:48:15;98279.44;;;16.75;100.00
70815;BME280;58428;49.478;10.986;2023-07-31T03:50:41;98275.88;;;16.71;100.00
70815;BME280;58428;49.478;10.986;2023-07-31T03:53:07;98272.25;;;16.63;100.00
70815;BME280;58428;49.478;10.986;2023-07-31T03:55:32;98274.63;;;16.65;100.00
70815;BME280;58428;49.478;10.986;2023-07-31T03:57:57;98268.00;;;16.66;100.00
70815;BME280;58428;49.478;10.986;2023-07-31T04:00:30;98279.69;;;16.66;100.00
70815;BME280;58428;49.478;10.986;2023-07-31T04:02:55;98275.09;;;16.70;100.00
70815;BME280;58428;49.478;10.986;2023-07-31T04:05:20;98273.22;;;16.74;100.00
70815;BME280;58428;49.478;10.986;2023-07-31T04:11:29;98280.66;;;16.77;100.00
70815;BME280;58428;49.478;10.986;2023-07-31T04:13:54;98272.78;;;16.72;100.00
70815;BME280;58428;49.478;10.986;2023-07-31T04:16:50;98264.59;;;16.72;100.00
70815;BME280;58428;49.478;10.986;2023-07-31T04:19:21;98277.84;;;16.70;100.00
70815;BME280;58428;49.478;10.986;2023-07-31T04:22:18;98267.25;;;16.69;100.00
70815;BME280;58428;49.478;10.986;2023-07-31T04:28:14;98269.03;;;16.58;100.00
70815;BME280;58428;49.478;10.986;2023-07-31T04:34:15;98274.94;;;16.60;100.00
70815;BME280;58428;49.478;10.986;2023-07-31T04:36:42;98269.47;;;16.60;100.00
70815;BME280;58428;49.478;10.986;2023-07-31T04:39:10;98271.34;;;16.56;100.00
70815;BME280;58428;49.478;10.986;2023-07-31T04:41:36;98266.66;;;16.57;100.00
70815;BME280;58428;49.478;10.986;2023-07-31T04:44:02;98264.69;;;16.54;100.00
70815;BME280;58428;49.478;10.986;2023-07-31T04:46:29;98256.91;;;16.56;100.00
70815;BME280;58428;49.478;10.986;2023-07-31T04:51:57;98256.75;;;16.71;100.00
70815;BME280;58428;49.478;10.986;2023-07-31T04:54:23;98249.75;;;16.73;100.00
70815;BME280;58428;49.478;10.986;2023-07-31T04:56:48;98246.72;;;16.78;100.00
70815;BME280;58428;49.478;10.986;2023-07-31T04:59:13;98251.84;;;16.83;100.00
70815;BME280;58428;49.478;10.986;2023-07-31T05:01:39;98239.84;;;16.91;100.00
70815;BME280;58428;49.478;10.986;2023-07-31T05:04:05;98246.63;;;17.00;100.00
70815;BME280;58428;49.478;10.986;2023-07-31T05:06:31;98238.53;;;17.07;100.00
70815;BME280;58428;49.478;10.986;2023-07-31T05:08:57;98240.09;;;17.08;100.00
70815;BME280;58428;49.478;10.986;2023-07-31T05:11:25;98237.34;;;17.08;100.00
70815;BME280;58428;49.478;10.986;2023-07-31T05:13:51;98242.50;;;17.13;100.00
70815;BME280;58428;49.478;10.986;2023-07-31T05:16:16;98250.44;;;17.22;100.00
70815;BME280;58428;49.478;10.986;2023-07-31T05:18:44;98250.13;;;17.27;100.00
70815;BME280;58428;49.478;10.986;2023-07-31T05:21:10;98246.78;;;17.43;100.00
70815;BME280;58428;49.478;10.986;2023-07-31T05:23:35;98249.66;;;17.54;100.00
70815;BME280;58428;49.478;10.986;2023-07-31T05:26:05;98252.03;;;17.59;100.00
70815;BME280;58428;49.478;10.986;2023-07-31T05:28:34;98250.63;;;17.71;100.00
70815;BME280;58428;49.478;10.986;2023-07-31T05:31:01;98250.28;;;17.76;100.00
70815;BME280;58428;49.478;10.986;2023-07-31T05:33:47;98258.97;;;17.85;100.00
70815;BME280;58428;49.478;10.986;2023-07-31T05:36:12;98261.44;;;17.97;100.00
70815;BME280;58428;49.478;10.986;2023-07-31T05:38:40;98263.84;;;18.02;100.00
70815;BME280;58428;49.478;10.986;2023-07-31T05:41:13;98265.41;;;18.03;100.00
70815;BME280;58428;49.478;10.986;2023-07-31T05:43:41;98264.50;;;17.89;100.00
70815;BME280;58428;49.478;10.986;2023-07-31T05:46:08;98266.09;;;17.93;100.00
70815;BME280;58428;49.478;10.986;2023-07-31T05:48:34;98258.00;;;18.07;100.00
70815;BME280;58428;49.478;10.986;2023-07-31T05:51:00;98255.38;;;18.17;100.00
70815;BME280;58428;49.478;10.986;2023-07-31T05:53:28;98252.44;;;18.40;100.00
70815;BME280;58428;49.478;10.986;2023-07-31T05:55:54;98241.56;;;18.46;100.00
70815;BME280;58428;49.478;10.986;2023-07-31T05:58:19;98241.22;;;18.55;100.00
70815;BME280;58428;49.478;10.986;2023-07-31T06:00:45;98236.50;;;18.55;100.00
70815;BME280;58428;49.478;10.986;2023-07-31T06:03:10;98235.75;;;18.62;100.00
70815;BME280;58428;49.478;10.986;2023-07-31T06:05:37;98234.28;;;18.71;100.00
70815;BME280;58428;49.478;10.986;2023-07-31T06:08:04;98234.28;;;18.75;100.00
70815;BME280;58428;49.478;10.986;2023-07-31T06:10:33;98240.22;;;18.87;100.00
70815;BME280;58428;49.478;10.986;2023-07-31T06:13:00;98239.13;;;18.95;100.00
70815;BME280;58428;49.478;10.986;2023-07-31T06:15:35;98239.56;;;19.00;100.00
70815;BME280;58428;49.478;10.986;2023-07-31T06:18:03;98249.38;;;19.08;100.00
70815;BME280;58428;49.478;10.986;2023-07-31T06:20:31;98247.13;;;19.20;100.00
70815;BME280;58428;49.478;10.986;2023-07-31T06:23:12;98241.66;;;19.24;100.00
70815;BME280;58428;49.478;10.986;2023-07-31T06:25:46;98247.97;;;19.38;100.00
70815;BME280;58428;49.478;10.986;2023-07-31T06:28:12;98249.53;;;19.43;100.00
70815;BME280;58428;49.478;10.986;2023-07-31T06:30:37;98250.75;;;19.52;100.00
70815;BME280;58428;49.478;10.986;2023-07-31T06:33:04;98245.25;;;19.49;100.00
70815;BME280;58428;49.478;10.986;2023-07-31T06:35:31;98248.41;;;19.54;100.00
70815;BME280;58428;49.478;10.986;2023-07-31T06:37:57;98243.25;;;19.32;100.00
70815;BME280;58428;49.478;10.986;2023-07-31T06:40:22;98250.66;;;19.31;100.00
70815;BME280;58428;49.478;10.986;2023-07-31T06:42:49;98242.50;;;19.45;100.00
70815;BME280;58428;49.478;10.986;2023-07-31T06:45:14;98237.81;;;19.46;100.00
70815;BME280;58428;49.478;10.986;2023-07-31T06:47:43;98249.19;;;19.58;100.00
70815;BME280;58428;49.478;10.986;2023-07-31T06:50:08;98245.38;;;19.83;100.00
70815;BME280;58428;49.478;10.986;2023-07-31T06:52:34;98246.19;;;20.08;100.00
70815;BME280;58428;49.478;10.986;2023-07-31T06:55:18;98238.75;;;20.12;100.00
70815;BME280;58428;49.478;10.986;2023-07-31T06:57:44;98232.06;;;20.16;100.00
70815;BME280;58428;49.478;10.986;2023-07-31T07:00:12;98240.72;;;20.22;100.00
70815;BME280;58428;49.478;10.986;2023-07-31T07:02:40;98242.66;;;20.28;100.00
70815;BME280;58428;49.478;10.986;2023-07-31T07:05:07;98244.25;;;20.46;100.00
70815;BME280;58428;49.478;10.986;2023-07-31T07:07:34;98251.72;;;20.70;100.00
70815;BME280;58428;49.478;10.986;2023-07-31T07:10:00;98234.81;;;20.68;100.00
70815;BME280;58428;49.478;10.986;2023-07-31T07:12:29;98238.38;;;20.62;100.00
70815;BME280;58428;49.478;10.986;2023-07-31T07:14:55;98237.97;;;20.70;100.00
70815;BME280;58428;49.478;10.986;2023-07-31T07:17:20;98234.44;;;20.56;100.00
70815;BME280;58428;49.478;10.986;2023-07-31T07:19:48;98231.69;;;20.56;100.00
70815;BME280;58428;49.478;10.986;2023-07-31T07:22:13;98231.69;;;20.63;100.00
70815;BME280;58428;49.478;10.986;2023-07-31T07:24:41;98235.56;;;20.89;100.00
70815;BME280;58428;49.478;10.986;2023-07-31T07:27:06;98239.44;;;21.09;100.00
70815;BME280;58428;49.478;10.986;2023-07-31T07:29:33;98240.66;;;20.98;100.00
70815;BME280;58428;49.478;10.986;2023-07-31T07:31:59;98239.88;;;21.04;100.00
70815;BME280;58428;49.478;10.986;2023-07-31T07:34:28;98239.03;;;21.14;100.00
70815;BME280;58428;49.478;10.986;2023-07-31T07:36:56;98241.84;;;21.00;100.00
70815;BME280;58428;49.478;10.986;2023-07-31T07:39:22;98241.81;;;21.07;100.00
70815;BME280;58428;49.478;10.986;2023-07-31T07:41:47;98248.13;;;21.04;100.00
70815;BME280;58428;49.478;10.986;2023-07-31T07:44:14;98246.19;;;20.87;100.00
70815;BME280;58428;49.478;10.986;2023-07-31T07:46:40;98246.16;;;20.98;100.00
70815;BME280;58428;49.478;10.986;2023-07-31T07:49:06;98242.19;;;21.05;100.00
70815;BME280;58428;49.478;10.986;2023-07-31T07:51:32;98242.94;;;21.20;100.00
70815;BME280;58428;49.478;10.986;2023-07-31T07:53:58;98239.78;;;21.25;100.00
70815;BME280;58428;49.478;10.986;2023-07-31T07:56:25;98239.38;;;21.23;100.00
70815;BME280;58428;49.478;10.986;2023-07-31T07:58:51;98239.81;;;21.14;100.00
70815;BME280;58428;49.478;10.986;2023-07-31T08:01:17;98236.25;;;21.17;100.00
70815;BME280;58428;49.478;10.986;2023-07-31T08:03:43;98227.63;;;21.15;100.00
70815;BME280;58428;49.478;10.986;2023-07-31T08:06:11;98224.44;;;21.24;100.00
70815;BME280;58428;49.478;10.986;2023-07-31T08:08:38;98218.09;;;21.47;100.00
70815;BME280;58428;49.478;10.986;2023-07-31T08:11:04;98224.63;;;21.71;100.00
70815;BME280;58428;49.478;10.986;2023-07-31T08:13:30;98231.97;;;21.91;100.00
70815;BME280;58428;49.478;10.986;2023-07-31T08:15:55;98220.72;;;22.25;100.00
70815;BME280;58428;49.478;10.986;2023-07-31T08:18:21;98223.28;;;22.50;100.00
70815;BME280;58428;49.478;10.986;2023-07-31T08:20:47;98218.97;;;22.49;100.00
70815;BME280;58428;49.478;10.986;2023-07-31T08:23:12;98227.44;;;22.24;100.00
70815;BME280;58428;49.478;10.986;2023-07-31T08:25:40;98216.25;;;21.91;100.00
70815;BME280;58428;49.478;10.986;2023-07-31T08:28:08;98214.72;;;21.83;100.00
70815;BME280;58428;49.478;10.986;2023-07-31T08:30:33;98210.28;;;21.96;100.00
70815;BME280;58428;49.478;10.986;2023-07-31T08:33:00;98194.44;;;22.14;100.00
70815;BME280;58428;49.478;10.986;2023-07-31T08:35:26;98184.59;;;22.13;100.00
70815;BME280;58428;49.478;10.986;2023-07-31T08:37:53;98191.50;;;22.38;100.00
70815;BME280;58428;49.478;10.986;2023-07-31T08:40:19;98188.56;;;22.55;100.00
70815;BME280;58428;49.478;10.986;2023-07-31T08:42:45;98171.63;;;22.57;100.00
70815;BME280;58428;49.478;10.986;2023-07-31T08:45:15;98180.56;;;22.68;100.00
70815;BME280;58428;49.478;10.986;2023-07-31T08:47:47;98175.78;;;22.72;100.00
70815;BME280;58428;49.478;10.986;2023-07-31T08:50:16;98171.38;;;22.78;100.00
70815;BME280;58428;49.478;10.986;2023-07-31T08:52:41;98179.56;;;22.48;100.00
70815;BME280;58428;49.478;10.986;2023-07-31T08:55:07;98175.69;;;22.42;100.00
70815;BME280;58428;49.478;10.986;2023-07-31T08:57:38;98178.84;;;22.41;100.00
70815;BME280;58428;49.478;10.986;2023-07-31T09:00:05;98173.63;;;22.53;100.00
70815;BME280;58428;49.478;10.986;2023-07-31T09:02:41;98170.78;;;22.60;100.00
70815;BME280;58428;49.478;10.986;2023-07-31T09:05:09;98184.81;;;22.72;100.00
70815;BME280;58428;49.478;10.986;2023-07-31T09:07:37;98176.88;;;22.41;100.00
70815;BME280;58428;49.478;10.986;2023-07-31T09:10:05;98182.34;;;22.48;100.00
70815;BME280;58428;49.478;10.986;2023-07-31T09:12:31;98180.19;;;22.66;100.00
70815;BME280;58428;49.478;10.986;2023-07-31T09:14:57;98167.50;;;22.72;100.00
70815;BME280;58428;49.478;10.986;2023-07-31T09:17:34;98171.31;;;22.88;100.00
70815;BME280;58428;49.478;10.986;2023-07-31T09:20:20;98160.22;;;23.25;100.00
70815;BME280;58428;49.478;10.986;2023-07-31T09:22:48;98155.84;;;23.53;100.00
70815;BME280;58428;49.478;10.986;2023-07-31T09:25:21;98157.97;;;23.72;100.00
70815;BME280;58428;49.478;10.986;2023-07-31T09:27:48;98157.34;;;23.87;100.00
70815;BME280;58428;49.478;10.986;2023-07-31T09:30:14;98153.00;;;23.86;100.00
70815;BME280;58428;49.478;10.986;2023-07-31T09:32:40;98160.78;;;23.68;100.00
70815;BME280;58428;49.478;10.986;2023-07-31T09:35:41;98160.53;;;23.86;100.00
70815;BME280;58428;49.478;10.986;2023-07-31T09:38:09;98148.56;;;23.92;100.00
70815;BME280;58428;49.478;10.986;2023-07-31T09:40:44;98157.13;;;24.01;100.00
70815;BME280;58428;49.478;10.986;2023-07-31T09:43:42;98154.03;;;24.22;100.00
70815;BME280;58428;49.478;10.986;2023-07-31T09:46:20;98143.63;;;24.52;100.00
70815;BME280;58428;49.478;10.986;2023-07-31T09:48:47;98139.97;;;24.58;100.00
70815;BME280;58428;49.478;10.986;2023-07-31T09:51:13;98140.28;;;24.41;100.00
70815;BME280;58428;49.478;10.986;2023-07-31T09:53:40;98143.25;;;24.04;100.00
70815;BME280;58428;49.478;10.986;2023-07-31T09:56:06;98137.81;;;23.75;100.00
70815;BME280;58428;49.478;10.986;2023-07-31T09:58:33;98125.47;;;23.57;100.00
70815;BME280;58428;49.478;10.986;2023-07-31T10:01:01;98132.47;;;23.61;100.00
70815;BME280;58428;49.478;10.986;2023-07-31T10:03:28;98128.34;;;23.46;100.00
70815;BME280;58428;49.478;10.986;2023-07-31T10:05:57;98131.75;;;23.57;100.00
70815;BME280;58428;49.478;10.986;2023-07-31T10:08:27;98136.97;;;23.78;100.00
70815;BME280;58428;49.478;10.986;2023-07-31T10:10:59;98119.88;;;24.09;100.00
70815;BME280;58428;49.478;10.986;2023-07-31T10:13:28;98123.28;;;23.94;100.00
70815;BME280;58428;49.478;10.986;2023-07-31T10:15:54;98120.38;;;23.78;100.00
70815;BME280;58428;49.478;10.986;2023-07-31T10:18:24;98107.06;;;23.43;100.00
70815;BME280;58428;49.478;10.986;2023-07-31T10:20:50;98111.00;;;23.16;100.00
70815;BME280;58428;49.478;10.986;2023-07-31T10:23:17;98097.81;;;23.30;100.00
70815;BME280;58428;49.478;10.986;2023-07-31T10:25:44;98099.56;;;23.73;100.00
70815;BME280;58428;49.478;10.986;2023-07-31T10:28:10;98091.31;;;23.70;100.00
70815;BME280;58428;49.478;10.986;2023-07-31T10:30:37;98085.94;;;24.08;100.00
70815;BME280;58428;49.478;10.986;2023-07-31T10:33:05;98087.00;;;23.92;100.00
70815;BME280;58428;49.478;10.986;2023-07-31T10:35:33;98081.63;;;23.59;100.00
70815;BME280;58428;49.478;10.986;2023-07-31T10:38:25;98077.44;;;23.96;100.00
70815;BME280;58428;49.478;10.986;2023-07-31T10:40:51;98070.69;;;24.42;100.00
70815;BME280;58428;49.478;10.986;2023-07-31T10:43:26;98069.00;;;24.87;100.00
70815;BME280;58428;49.478;10.986;2023-07-31T10:45:53;98064.56;;;24.93;100.00
70815;BME280;58428;49.478;10.986;2023-07-31T10:48:18;98062.31;;;25.23;100.00
70815;BME280;58428;49.478;10.986;2023-07-31T10:50:49;98054.25;;;25.13;100.00
70815;BME280;58428;49.478;10.986;2023-07-31T10:53:42;98048.00;;;25.09;100.00
70815;BME280;58428;49.478;10.986;2023-07-31T10:56:11;98048.75;;;25.28;100.00
70815;BME280;58428;49.478;10.986;2023-07-31T10:58:39;98050.75;;;25.44;100.00
70815;BME280;58428;49.478;10.986;2023-07-31T11:01:05;98042.88;;;25.42;100.00
70815;BME280;58428;49.478;10.986;2023-07-31T11:03:46;98041.81;;;25.20;100.00
70815;BME280;58428;49.478;10.986;2023-07-31T11:06:18;98037.59;;;25.32;100.00
70815;BME280;58428;49.478;10.986;2023-07-31T11:08:45;98043.03;;;25.35;100.00
70815;BME280;58428;49.478;10.986;2023-07-31T11:11:13;98041.81;;;25.20;100.00
70815;BME280;58428;49.478;10.986;2023-07-31T11:16:04;98040.63;;;24.64;100.00
70815;BME280;58428;49.478;10.986;2023-07-31T11:18:30;98028.38;;;24.65;100.00
70815;BME280;58428;49.478;10.986;2023-07-31T11:20:56;98030.72;;;24.66;100.00
70815;BME280;58428;49.478;10.986;2023-07-31T11:23:22;98025.59;;;24.65;100.00
70815;BME280;58428;49.478;10.986;2023-07-31T11:25:48;98033.03;;;24.48;100.00
70815;BME280;58428;49.478;10.986;2023-07-31T11:28:17;98041.50;;;24.19;100.00
70815;BME280;58428;49.478;10.986;2023-07-31T11:30:45;98044.16;;;24.03;100.00
70815;BME280;58428;49.478;10.986;2023-07-31T11:33:13;98041.34;;;23.84;100.00
70815;BME280;58428;49.478;10.986;2023-07-31T11:35:42;98036.66;;;23.58;100.00
70815;BME280;58428;49.478;10.986;2023-07-31T11:38:10;98040.56;;;23.61;100.00
70815;BME280;58428;49.478;10.986;2023-07-31T11:40:43;98055.47;;;23.40;100.00
70815;BME280;58428;49.478;10.986;2023-07-31T11:43:10;98050.44;;;23.32;100.00
70815;BME280;58428;49.478;10.986;2023-07-31T11:45:40;98039.47;;;23.28;100.00
70815;BME280;58428;49.478;10.986;2023-07-31T11:48:06;98042.22;;;23.28;100.00
70815;BME280;58428;49.478;10.986;2023-07-31T11:50:33;98039.94;;;23.24;100.00
70815;BME280;58428;49.478;10.986;2023-07-31T11:53:03;98036.28;;;23.30;100.00
70815;BME280;58428;49.478;10.986;2023-07-31T11:55:29;98032.41;;;23.50;100.00
70815;BME280;58428;49.478;10.986;2023-07-31T11:57:57;98033.41;;;23.63;100.00
70815;BME280;58428;49.478;10.986;2023-07-31T12:00:24;98023.06;;;23.67;100.00
70815;BME280;58428;49.478;10.986;2023-07-31T12:02:51;98017.22;;;24.07;100.00
70815;BME280;58428;49.478;10.986;2023-07-31T12:05:20;98025.31;;;24.40;100.00
70815;BME280;58428;49.478;10.986;2023-07-31T12:07:52;98020.50;;;24.44;100.00
70815;BME280;58428;49.478;10.986;2023-07-31T12:10:29;98024.38;;;24.46;100.00
70815;BME280;58428;49.478;10.986;2023-07-31T12:13:00;98016.81;;;24.31;100.00
70815;BME280;58428;49.478;10.986;2023-07-31T12:15:44;98026.59;;;24.36;100.00
70815;BME280;58428;49.478;10.986;2023-07-31T12:18:15;98012.56;;;24.23;100.00
70815;BME280;58428;49.478;10.986;2023-07-31T12:20:44;98014.97;;;24.02;100.00
70815;BME280;58428;49.478;10.986;2023-07-31T12:23:17;98011.03;;;24.00;100.00
70815;BME280;58428;49.478;10.986;2023-07-31T12:25:43;98003.84;;;24.25;100.00
70815;BME280;58428;49.478;10.986;2023-07-31T12:28:09;98009.63;;;24.34;100.00
70815;BME280;58428;49.478;10.986;2023-07-31T12:30:39;98001.28;;;24.37;100.00
70815;BME280;58428;49.478;10.986;2023-07-31T12:33:13;98001.69;;;24.55;100.00
70815;BME280;58428;49.478;10.986;2023-07-31T12:35:43;98000.63;;;24.68;100.00
70815;BME280;58428;49.478;10.986;2023-07-31T12:38:09;97999.59;;;24.20;100.00
70815;BME280;58428;49.478;10.986;2023-07-31T12:40:37;97987.47;;;24.14;100.00
70815;BME280;58428;49.478;10.986;2023-07-31T12:43:05;97989.19;;;24.08;100.00
70815;BME280;58428;49.478;10.986;2023-07-31T12:45:31;97979.03;;;24.21;100.00
70815;BME280;58428;49.478;10.986;2023-07-31T12:47:58;97971.84;;;24.27;100.00
70815;BME280;58428;49.478;10.986;2023-07-31T12:50:24;97976.03;;;24.54;100.00
70815;BME280;58428;49.478;10.986;2023-07-31T12:52:49;97962.41;;;24.79;100.00
70815;BME280;58428;49.478;10.986;2023-07-31T12:55:15;97961.91;;;25.03;100.00
70815;BME280;58428;49.478;10.986;2023-07-31T12:57:40;97959.06;;;25.07;100.00
70815;BME280;58428;49.478;10.986;2023-07-31T13:00:10;97956.81;;;24.82;100.00
70815;BME280;58428;49.478;10.986;2023-07-31T13:02:37;97952.66;;;24.75;100.00
70815;BME280;58428;49.478;10.986;2023-07-31T13:05:03;97953.78;;;25.12;100.00
70815;BME280;58428;49.478;10.986;2023-07-31T13:07:28;97955.16;;;25.20;100.00
70815;BME280;58428;49.478;10.986;2023-07-31T13:09:54;97946.16;;;25.16;100.00
70815;BME280;58428;49.478;10.986;2023-07-31T13:12:19;97944.44;;;25.22;100.00
70815;BME280;58428;49.478;10.986;2023-07-31T13:14:44;97940.22;;;24.82;99.19
70815;BME280;58428;49.478;10.986;2023-07-31T13:17:11;97944.63;;;25.15;100.00
70815;BME280;58428;49.478;10.986;2023-07-31T13:19:38;97932.22;;;25.19;100.00
70815;BME280;58428;49.478;10.986;2023-07-31T13:22:03;97942.19;;;25.17;100.00
70815;BME280;58428;49.478;10.986;2023-07-31T13:24:29;97924.00;;;25.48;100.00
70815;BME280;58428;49.478;10.986;2023-07-31T13:26:56;97931.81;;;25.96;98.43